Time;durP1;ratioP1;P1;durP2;ratioP2;P2;SDS_P1;SDS_P2;PMS_P1;PMS_P2;Temp;Humidity;BMP_temperature;BMP_pressure;BME280_temperature;BME280_humidity;BME280_pressure;Samples;Min_cycle;Max_cycle;Signal;HPM_P1;HPM_P2
2023/03/27 00:00:11;;;;;;;1.73;0.90;;;11.70;71.90;;;;;;5052929;28;20351;-70
2023/03/27 00:02:37;;;;;;;1.65;0.90;;;11.70;72.70;;;;;;5051321;28;20083;-70
2023/03/27 00:05:04;;;;;;;1.88;1.00;;;11.70;72.20;;;;;;5053067;28;20037;-70
2023/03/27 00:07:29;;;;;;;1.10;0.77;;;11.70;72.00;;;;;;5052434;28;20179;-70
2023/03/27 00:09:56;;;;;;;3.03;1.00;;;11.70;71.80;;;;;;5052957;28;20060;-70
2023/03/27 00:12:21;;;;;;;2.10;1.13;;;11.70;71.90;;;;;;5052355;28;20039;-71
2023/03/27 00:14:47;;;;;;;4.80;1.10;;;11.70;72.00;;;;;;5052449;28;20029;-70
2023/03/27 00:17:13;;;;;;;2.70;1.15;;;11.70;72.30;;;;;;5052480;28;20104;-70
2023/03/27 00:19:39;;;;;;;4.72;1.13;;;11.70;72.40;;;;;;5052393;28;20036;-70
2023/03/27 00:22:04;;;;;;;1.50;0.80;;;11.70;73.10;;;;;;5052794;28;20078;-70
2023/03/27 00:24:31;;;;;;;2.35;1.10;;;11.60;73.40;;;;;;5051891;28;20025;-70
2023/03/27 00:26:57;;;;;;;2.22;0.98;;;11.60;73.90;;;;;;5052613;28;20025;-70
2023/03/27 00:29:22;;;;;;;3.55;1.50;;;11.60;74.20;;;;;;5051914;28;20420;-71
2023/03/27 00:31:48;;;;;;;3.80;1.25;;;11.60;74.90;;;;;;5052390;28;20130;-70
2023/03/27 00:34:14;;;;;;;2.40;1.33;;;11.60;75.00;;;;;;5052436;28;20033;-70
2023/03/27 00:36:39;;;;;;;2.50;1.33;;;11.50;75.60;;;;;;5052197;28;20067;-70
2023/03/27 00:39:05;;;;;;;2.88;1.40;;;11.60;76.00;;;;;;5052359;28;20059;-70
2023/03/27 00:41:32;;;;;;;1.98;1.20;;;11.50;76.20;;;;;;5051895;28;20025;-72
2023/03/27 00:43:58;;;;;;;3.00;1.40;;;11.50;76.50;;;;;;5052043;28;20041;-71
2023/03/27 00:46:37;;;;;;;3.47;1.20;;;11.50;76.90;;;;;;5051706;28;20163;-76
2023/03/27 00:49:08;;;;;;;3.15;1.25;;;11.50;77.30;;;;;;5052458;28;20029;-70
2023/03/27 00:51:35;;;;;;;2.90;1.45;;;11.40;77.20;;;;;;5051650;28;20029;-70
2023/03/27 00:54:02;;;;;;;2.67;1.20;;;11.40;77.20;;;;;;5051788;28;20454;-70
2023/03/27 00:56:29;;;;;;;2.05;1.45;;;11.40;77.40;;;;;;5052043;28;20025;-71
2023/03/27 00:58:59;;;;;;;4.60;1.48;;;11.30;77.50;;;;;;5052307;28;20018;-69
2023/03/27 01:01:27;;;;;;;6.30;1.50;;;11.30;77.60;;;;;;5051903;28;20408;-70
2023/03/27 01:03:53;;;;;;;1.58;1.38;;;11.30;77.70;;;;;;5051843;28;20029;-70
2023/03/27 01:06:21;;;;;;;2.45;1.38;;;11.20;78.10;;;;;;5052189;28;20029;-70
2023/03/27 01:08:47;;;;;;;2.72;1.48;;;11.20;78.20;;;;;;5051858;28;20837;-70
2023/03/27 01:11:26;;;;;;;2.22;1.40;;;11.10;78.40;;;;;;5052092;28;20052;-70
2023/03/27 01:14:10;;;;;;;4.18;1.50;;;11.10;78.60;;;;;;5052480;28;20033;-70
2023/03/27 01:16:56;;;;;;;2.22;1.58;;;11.10;78.90;;;;;;5054684;28;20036;-70
2023/03/27 01:20:06;;;;;;;5.15;1.48;;;11.00;79.00;;;;;;5056184;28;20036;-69
2023/03/27 01:22:32;;;;;;;3.90;1.63;;;11.00;79.30;;;;;;5044352;28;20040;-70
2023/03/27 01:25:16;;;;;;;2.90;1.30;;;10.90;79.60;;;;;;5055862;28;20480;-70
2023/03/27 01:28:07;;;;;;;1.48;1.20;;;10.80;79.80;;;;;;5055490;28;20017;-70
2023/03/27 01:30:53;;;;;;;3.15;1.13;;;10.80;80.20;;;;;;5055445;28;20507;-69
2023/03/27 01:33:39;;;;;;;2.17;1.20;;;10.70;80.50;;;;;;5055492;28;20114;-69
2023/03/27 01:36:07;;;;;;;1.40;1.13;;;10.70;80.90;;;;;;5054495;28;20068;-70
2023/03/27 01:38:44;;;;;;;1.20;1.00;;;10.60;81.00;;;;;;5055103;28;20374;-69
2023/03/27 01:41:29;;;;;;;1.20;1.10;;;10.60;81.40;;;;;;5055422;28;20029;-70
2023/03/27 01:44:13;;;;;;;2.40;1.10;;;10.60;81.60;;;;;;5055618;28;20051;-69
2023/03/27 01:46:52;;;;;;;1.60;1.10;;;10.50;81.70;;;;;;5054673;28;20021;-70
2023/03/27 01:49:23;;;;;;;1.35;1.17;;;10.50;82.00;;;;;;5055625;28;20025;-70
2023/03/27 01:51:55;;;;;;;1.27;0.90;;;10.40;81.90;;;;;;5054649;28;20458;-69
2023/03/27 01:54:26;;;;;;;1.23;0.90;;;10.40;82.20;;;;;;5055394;28;20035;-71
2023/03/27 01:57:07;;;;;;;1.35;1.00;;;10.40;82.20;;;;;;5054762;28;20071;-71
2023/03/27 01:59:38;;;;;;;2.95;0.90;;;10.30;82.40;;;;;;5055050;28;20033;-69
2023/03/27 02:02:12;;;;;;;2.17;0.80;;;10.20;82.50;;;;;;5055306;28;20033;-70
2023/03/27 02:04:46;;;;;;;1.42;1.00;;;10.20;82.80;;;;;;5054500;28;20029;-71
2023/03/27 02:07:18;;;;;;;2.25;0.95;;;10.20;82.70;;;;;;5055719;28;20078;-70
2023/03/27 02:09:52;;;;;;;0.93;0.85;;;10.10;82.80;;;;;;5054632;28;20024;-71
2023/03/27 02:12:22;;;;;;;0.80;0.80;;;10.10;83.20;;;;;;5054956;28;20075;-70
2023/03/27 02:15:16;;;;;;;1.90;0.88;;;10.00;83.00;;;;;;5054318;28;20029;-71
2023/03/27 02:17:48;;;;;;;1.15;0.90;;;10.00;83.70;;;;;;5054434;28;20532;-71
2023/03/27 02:20:15;;;;;;;1.65;0.90;;;9.90;84.20;;;;;;5054506;28;20502;-69
2023/03/27 02:22:47;;;;;;;1.20;1.02;;;9.90;84.60;;;;;;5054201;28;20057;-71
2023/03/27 02:25:24;;;;;;;1.27;1.00;;;9.90;84.90;;;;;;5054586;28;20032;-70
2023/03/27 02:28:13;;;;;;;2.40;1.15;;;9.80;85.20;;;;;;5053987;28;20151;-69
2023/03/27 02:30:56;;;;;;;1.67;1.27;;;9.80;85.60;;;;;;5041780;28;20385;-70
2023/03/27 02:33:27;;;;;;;1.50;1.30;;;9.80;85.90;;;;;;5054505;28;20036;-70
2023/03/27 02:36:12;;;;;;;2.72;1.55;;;9.70;86.50;;;;;;5054140;28;20044;-71
2023/03/27 02:38:53;;;;;;;2.95;1.80;;;9.70;86.90;;;;;;5054023;28;20584;-69
2023/03/27 02:42:01;;;;;;;1.92;1.67;;;9.70;88.20;;;;;;5054318;28;20021;-70
2023/03/27 02:44:31;;;;;;;1.80;1.70;;;9.60;88.20;;;;;;5054322;28;20057;-70
2023/03/27 02:47:21;;;;;;;2.55;1.70;;;9.60;88.80;;;;;;5053827;28;20029;-70
2023/03/27 02:50:15;;;;;;;1.83;1.73;;;9.60;89.30;;;;;;5053095;28;20028;-70
2023/03/27 02:52:50;;;;;;;1.60;1.50;;;9.60;89.70;;;;;;5052897;28;20039;-70
2023/03/27 02:55:23;;;;;;;1.60;1.50;;;9.50;90.20;;;;;;5053923;28;20032;-70
2023/03/27 02:57:55;;;;;;;1.75;1.52;;;9.50;90.40;;;;;;5053803;28;20024;-70
2023/03/27 03:00:24;;;;;;;1.42;1.33;;;9.50;90.50;;;;;;5054268;28;20357;-69
2023/03/27 03:03:04;;;;;;;1.90;1.50;;;9.40;90.70;;;;;;5053579;28;20029;-70
2023/03/27 03:05:31;;;;;;;2.03;1.30;;;9.40;91.00;;;;;;5054038;28;20021;-70
2023/03/27 03:07:57;;;;;;;1.77;1.52;;;9.50;90.80;;;;;;5053328;28;20083;-70
2023/03/27 03:10:24;;;;;;;3.10;1.55;;;9.50;91.10;;;;;;5054190;28;20408;-70
2023/03/27 03:12:50;;;;;;;1.80;1.50;;;9.40;91.10;;;;;;5053520;28;20143;-70
2023/03/27 03:15:17;;;;;;;1.40;1.30;;;9.40;91.10;;;;;;5053487;28;20048;-70
2023/03/27 03:17:43;;;;;;;1.30;1.20;;;9.40;91.10;;;;;;5053171;28;20346;-70
2023/03/27 03:20:11;;;;;;;1.67;1.08;;;9.40;91.10;;;;;;5053446;28;20064;-69
2023/03/27 03:22:40;;;;;;;0.95;0.90;;;9.40;90.90;;;;;;5053070;28;20037;-70
2023/03/27 03:25:06;;;;;;;0.80;0.80;;;9.40;90.80;;;;;;5053468;28;20091;-71
2023/03/27 03:27:33;;;;;;;0.70;0.60;;;9.30;90.80;;;;;;5053529;28;20025;-69
2023/03/27 03:29:59;;;;;;;2.30;0.80;;;9.20;90.80;;;;;;5051562;28;20048;-70
2023/03/27 03:32:26;;;;;;;0.60;0.60;;;9.20;91.00;;;;;;5053240;28;20037;-70
2023/03/27 03:34:52;;;;;;;1.02;0.80;;;9.20;91.10;;;;;;5052788;28;20033;-70
2023/03/27 03:37:18;;;;;;;0.70;0.70;;;9.10;91.10;;;;;;5052835;28;20021;-69
2023/03/27 03:39:45;;;;;;;0.95;0.90;;;9.10;91.30;;;;;;5052403;28;20028;-70
2023/03/27 03:42:11;;;;;;;1.30;0.70;;;9.10;91.30;;;;;;5052039;28;20078;-70
2023/03/27 03:44:37;;;;;;;2.33;0.80;;;9.00;91.30;;;;;;5052432;28;20123;-71
2023/03/27 03:47:03;;;;;;;0.75;0.70;;;9.00;91.20;;;;;;5053275;28;20025;-70
2023/03/27 03:49:29;;;;;;;0.73;0.70;;;9.00;91.10;;;;;;5053554;28;20021;-70
2023/03/27 03:51:55;;;;;;;1.02;0.70;;;9.00;91.30;;;;;;5052617;28;20032;-70
2023/03/27 03:54:20;;;;;;;0.80;0.80;;;8.90;91.30;;;;;;5052611;28;20033;-71
2023/03/27 03:56:47;;;;;;;0.98;0.60;;;8.90;91.50;;;;;;5052183;28;20028;-70
2023/03/27 03:59:13;;;;;;;0.60;0.60;;;8.90;91.70;;;;;;5053024;28;20032;-70
2023/03/27 04:01:39;;;;;;;1.05;0.70;;;8.80;91.80;;;;;;5052531;28;20473;-70
2023/03/27 04:04:06;;;;;;;1.00;0.90;;;8.80;92.00;;;;;;5052990;28;20469;-70
2023/03/27 04:06:36;;;;;;;1.13;0.98;;;8.70;92.20;;;;;;5052928;28;20033;-71
2023/03/27 04:09:03;;;;;;;0.98;0.90;;;8.70;92.40;;;;;;5052561;28;20029;-71
2023/03/27 04:11:29;;;;;;;1.55;0.90;;;8.70;92.60;;;;;;5052875;28;20035;-69
2023/03/27 04:13:54;;;;;;;1.00;1.00;;;8.70;92.70;;;;;;5051048;28;20108;-70
2023/03/27 04:16:21;;;;;;;1.40;0.98;;;8.70;92.80;;;;;;5052551;28;20475;-70
2023/03/27 04:18:48;;;;;;;2.22;1.00;;;8.60;93.10;;;;;;5052686;28;20021;-71
2023/03/27 04:21:14;;;;;;;0.98;0.90;;;8.60;93.20;;;;;;5052774;28;20025;-70
2023/03/27 04:23:41;;;;;;;1.20;1.00;;;8.60;93.40;;;;;;5052453;28;20079;-71
2023/03/27 04:26:07;;;;;;;2.10;1.08;;;8.60;93.50;;;;;;5052430;28;20386;-70
2023/03/27 04:28:33;;;;;;;3.15;0.93;;;8.60;93.60;;;;;;5052252;28;20029;-69
2023/03/27 04:31:06;;;;;;;1.23;0.93;;;8.60;93.70;;;;;;5051957;28;20032;-70
2023/03/27 04:33:33;;;;;;;1.05;0.90;;;8.60;93.80;;;;;;5052058;28;20144;-69
2023/03/27 04:35:59;;;;;;;2.53;0.93;;;8.60;93.90;;;;;;5051974;28;20366;-69
2023/03/27 04:38:27;;;;;;;2.13;0.98;;;8.60;93.90;;;;;;5052414;28;20021;-70
2023/03/27 04:40:53;;;;;;;1.92;1.00;;;8.60;93.90;;;;;;5051687;28;20389;-70
2023/03/27 04:43:20;;;;;;;1.38;0.80;;;8.60;93.80;;;;;;5051942;28;20049;-70
2023/03/27 04:45:46;;;;;;;2.58;0.85;;;8.60;93.80;;;;;;5051793;28;20021;-70
2023/03/27 04:48:13;;;;;;;0.73;0.73;;;8.60;93.90;;;;;;5052307;28;20026;-70
2023/03/27 04:50:40;;;;;;;3.80;0.70;;;8.60;93.80;;;;;;5053750;28;20027;-69
2023/03/27 04:53:07;;;;;;;0.80;0.80;;;8.60;93.80;;;;;;5056215;28;20465;-69
2023/03/27 04:55:36;;;;;;;2.78;1.08;;;8.50;93.70;;;;;;5056246;28;20033;-70
2023/03/27 04:58:03;;;;;;;1.15;0.90;;;8.50;93.90;;;;;;5055228;28;20379;-70
2023/03/27 05:00:29;;;;;;;1.00;0.60;;;8.50;93.80;;;;;;5056346;28;20025;-70
2023/03/27 05:02:54;;;;;;;1.00;0.90;;;8.50;93.80;;;;;;5056035;28;20032;-70
2023/03/27 05:05:21;;;;;;;1.17;0.73;;;8.50;93.80;;;;;;5056225;28;20029;-70
2023/03/27 05:07:48;;;;;;;1.98;0.88;;;8.50;93.90;;;;;;5055612;28;20033;-70
2023/03/27 05:10:16;;;;;;;1.00;0.80;;;8.50;93.70;;;;;;5055735;28;20500;-70
2023/03/27 05:12:43;;;;;;;0.55;0.55;;;8.50;93.60;;;;;;5056030;28;20112;-70
2023/03/27 05:15:09;;;;;;;1.30;0.60;;;8.60;93.50;;;;;;5056084;28;20466;-69
2023/03/27 05:17:40;;;;;;;1.90;0.75;;;8.60;93.50;;;;;;5055955;28;20065;-69
2023/03/27 05:20:10;;;;;;;1.92;0.57;;;8.60;93.20;;;;;;5055300;28;20036;-70
2023/03/27 05:22:36;;;;;;;1.27;0.50;;;8.60;93.00;;;;;;5055446;28;20485;-70
2023/03/27 05:25:03;;;;;;;1.23;0.60;;;8.60;92.70;;;;;;5055047;28;20116;-70
2023/03/27 05:27:28;;;;;;;0.60;0.60;;;8.60;92.80;;;;;;5055693;28;20021;-70
2023/03/27 05:29:54;;;;;;;1.08;0.63;;;8.60;92.60;;;;;;5055164;28;20039;-70
2023/03/27 05:32:20;;;;;;;1.15;0.52;;;8.60;92.60;;;;;;5055623;28;20025;-70
2023/03/27 05:34:49;;;;;;;0.73;0.50;;;8.60;92.60;;;;;;5055115;28;20033;-70
2023/03/27 05:37:16;;;;;;;2.90;0.75;;;8.60;92.50;;;;;;5054208;28;20125;-70
2023/03/27 05:39:45;;;;;;;0.85;0.73;;;8.60;92.40;;;;;;5055601;28;20025;-70
2023/03/27 05:42:11;;;;;;;3.35;0.70;;;8.60;92.30;;;;;;5055691;28;20353;-69
2023/03/27 05:44:36;;;;;;;0.93;0.57;;;8.60;92.20;;;;;;5053706;28;20041;-70
2023/03/27 05:47:02;;;;;;;0.50;0.50;;;8.60;92.10;;;;;;5053346;28;20086;-70
2023/03/27 05:49:28;;;;;;;0.80;0.73;;;8.60;92.00;;;;;;5054168;28;20021;-70
2023/03/27 05:51:53;;;;;;;0.90;0.60;;;8.60;92.00;;;;;;5053480;28;20466;-70
2023/03/27 05:54:19;;;;;;;2.20;0.75;;;8.60;92.10;;;;;;5053905;28;20154;-70
2023/03/27 05:56:45;;;;;;;3.90;0.90;;;8.60;92.00;;;;;;5053473;28;20032;-70
2023/03/27 05:59:11;;;;;;;3.13;0.80;;;8.60;92.00;;;;;;5053429;28;20078;-70
2023/03/27 06:01:38;;;;;;;1.88;0.90;;;8.60;92.00;;;;;;5053300;28;20122;-70
2023/03/27 06:04:04;;;;;;;2.63;0.77;;;8.60;92.00;;;;;;5053156;28;20043;-70
2023/03/27 06:06:31;;;;;;;1.58;0.80;;;8.60;92.00;;;;;;5053693;28;20082;-69
2023/03/27 06:08:58;;;;;;;3.10;0.80;;;8.60;92.00;;;;;;5053077;28;20084;-70
2023/03/27 06:11:24;;;;;;;0.68;0.65;;;8.60;91.90;;;;;;5053607;28;20063;-70
2023/03/27 06:13:50;;;;;;;0.65;0.55;;;8.60;91.90;;;;;;5052973;28;20037;-70
2023/03/27 06:16:19;;;;;;;1.08;0.60;;;8.60;91.90;;;;;;5053708;28;20087;-69
2023/03/27 06:18:45;;;;;;;1.20;0.82;;;8.60;91.90;;;;;;5053504;28;20106;-69
2023/03/27 06:21:11;;;;;;;1.38;0.63;;;8.50;91.90;;;;;;5052980;28;20025;-69
2023/03/27 06:23:37;;;;;;;0.80;0.50;;;8.50;91.90;;;;;;5053634;28;20025;-70
2023/03/27 06:26:03;;;;;;;0.40;0.40;;;8.50;92.00;;;;;;5053299;28;20029;-69
2023/03/27 06:28:29;;;;;;;1.13;0.60;;;8.60;92.00;;;;;;5053948;28;20052;-70
2023/03/27 06:30:56;;;;;;;1.25;0.70;;;8.50;92.10;;;;;;5054901;28;20063;-70
2023/03/27 06:33:32;;;;;;;1.30;0.70;;;8.50;92.10;;;;;;5056490;28;20029;-70
2023/03/27 06:35:59;;;;;;;2.45;0.80;;;8.60;92.20;;;;;;5054384;28;20033;-69
2023/03/27 06:38:26;;;;;;;1.48;0.75;;;8.60;92.10;;;;;;5053585;28;20025;-71
2023/03/27 06:40:52;;;;;;;0.65;0.60;;;8.60;92.10;;;;;;5053726;28;20021;-70
2023/03/27 06:43:21;;;;;;;3.45;0.68;;;8.60;91.90;;;;;;5013082;28;1168388;-70
2023/03/27 06:45:48;;;;;;;5.28;0.70;;;8.60;92.10;;;;;;5054744;28;20044;-69
2023/03/27 06:48:15;;;;;;;0.88;0.60;;;8.60;92.20;;;;;;5054417;28;20144;-70
2023/03/27 06:50:41;;;;;;;0.93;0.65;;;8.50;91.90;;;;;;5054497;28;20379;-70
2023/03/27 06:53:07;;;;;;;0.95;0.63;;;8.60;92.00;;;;;;5054003;28;20378;-72
2023/03/27 06:55:33;;;;;;;1.05;0.60;;;8.60;91.90;;;;;;5054671;28;20040;-69
2023/03/27 06:58:00;;;;;;;1.67;0.80;;;8.60;91.50;;;;;;5054933;28;20029;-70
2023/03/27 07:00:30;;;;;;;0.77;0.60;;;8.60;91.30;;;;;;5056034;28;20055;-70
2023/03/27 07:02:57;;;;;;;0.60;0.52;;;8.60;91.30;;;;;;5056088;28;20029;-71
2023/03/27 07:05:25;;;;;;;4.30;0.70;;;8.70;91.10;;;;;;5055800;28;20086;-71
2023/03/27 07:07:51;;;;;;;1.15;0.68;;;8.70;91.10;;;;;;5056801;28;20031;-73
2023/03/27 07:10:17;;;;;;;0.63;0.55;;;8.70;91.00;;;;;;5054563;28;20033;-70
2023/03/27 07:12:53;;;;;;;2.78;0.93;;;8.70;91.10;;;;;;5053056;28;20078;-69
2023/03/27 07:15:18;;;;;;;1.70;1.20;;;8.70;91.50;;;;;;5053850;28;20087;-70
2023/03/27 07:17:55;;;;;;;2.00;1.05;;;8.70;91.90;;;;;;5054112;28;20029;-70
2023/03/27 07:20:21;;;;;;;0.77;0.60;;;8.70;92.50;;;;;;5053843;28;20025;-69
2023/03/27 07:22:47;;;;;;;2.22;0.80;;;8.70;92.90;;;;;;5053173;28;20470;-69
2023/03/27 07:25:13;;;;;;;1.20;0.60;;;8.80;93.30;;;;;;5052876;28;20062;-70
2023/03/27 07:27:39;;;;;;;1.20;0.80;;;8.80;93.40;;;;;;5053432;28;20476;-70
2023/03/27 07:30:06;;;;;;;0.98;0.63;;;8.80;93.20;;;;;;5053013;28;20112;-70
2023/03/27 07:32:35;;;;;;;2.78;0.75;;;8.80;93.70;;;;;;5053068;28;20542;-70
2023/03/27 07:35:04;;;;;;;1.15;0.70;;;8.80;94.40;;;;;;5052454;28;20025;-70
2023/03/27 07:37:30;;;;;;;3.22;1.13;;;8.80;94.60;;;;;;5053630;28;20438;-70
2023/03/27 07:39:55;;;;;;;0.73;0.63;;;8.80;94.90;;;;;;5053001;28;20104;-69
2023/03/27 07:42:21;;;;;;;2.50;0.77;;;8.80;94.90;;;;;;5053308;28;20424;-69
2023/03/27 07:44:46;;;;;;;1.58;1.10;;;8.80;95.20;;;;;;5053240;28;20041;-70
2023/03/27 07:47:12;;;;;;;1.00;0.80;;;8.80;95.80;;;;;;5052434;28;20075;-70
2023/03/27 07:49:38;;;;;;;1.20;1.00;;;8.80;95.80;;;;;;5053205;28;20028;-70
2023/03/27 07:52:05;;;;;;;2.35;0.80;;;8.80;96.00;;;;;;5052720;28;20104;-70
2023/03/27 07:54:31;;;;;;;1.83;1.13;;;8.80;96.10;;;;;;5053170;28;20295;-70
2023/03/27 07:56:56;;;;;;;1.08;0.77;;;8.80;96.80;;;;;;5052646;28;20031;-70
2023/03/27 07:59:23;;;;;;;0.80;0.80;;;8.80;96.90;;;;;;5053296;28;20029;-70
2023/03/27 08:01:49;;;;;;;1.10;0.90;;;8.80;96.70;;;;;;5053071;28;20495;-69
2023/03/27 08:04:16;;;;;;;2.15;0.60;;;8.80;97.20;;;;;;5051254;28;20036;-70
2023/03/27 08:06:42;;;;;;;1.20;0.93;;;8.80;97.20;;;;;;5052882;28;20369;-69
2023/03/27 08:09:09;;;;;;;1.50;1.10;;;8.80;97.60;;;;;;5052327;28;20458;-69
2023/03/27 08:11:37;;;;;;;1.85;0.70;;;8.80;97.60;;;;;;5052799;28;20065;-70
2023/03/27 08:14:03;;;;;;;1.42;1.10;;;8.80;97.80;;;;;;5052400;28;20025;-71
2023/03/27 08:16:29;;;;;;;1.58;1.13;;;8.80;98.00;;;;;;5053014;28;20119;-70
2023/03/27 08:18:56;;;;;;;1.23;0.90;;;8.80;98.30;;;;;;5052853;28;20052;-69
2023/03/27 08:21:22;;;;;;;4.00;1.00;;;8.80;98.10;;;;;;5052896;28;20078;-70
2023/03/27 08:23:48;;;;;;;3.45;1.10;;;8.80;98.40;;;;;;5052382;28;20477;-70
2023/03/27 08:26:14;;;;;;;1.73;1.00;;;8.80;98.60;;;;;;5052271;28;20064;-70
2023/03/27 08:28:40;;;;;;;1.42;0.98;;;8.80;98.80;;;;;;5052644;28;20535;-71
2023/03/27 08:31:12;;;;;;;1.55;1.10;;;8.80;98.80;;;;;;5052221;28;20025;-70
2023/03/27 08:33:40;;;;;;;1.25;1.00;;;8.80;99.10;;;;;;5052529;28;20029;-69
2023/03/27 08:36:07;;;;;;;1.45;1.23;;;8.90;99.10;;;;;;5051671;28;20029;-71
2023/03/27 08:38:34;;;;;;;0.95;0.80;;;8.90;99.40;;;;;;5051323;28;20029;-70
2023/03/27 08:41:02;;;;;;;1.10;1.00;;;8.90;99.60;;;;;;5052055;28;20025;-71
2023/03/27 08:43:35;;;;;;;2.97;1.00;;;8.90;99.90;;;;;;5052228;28;20084;-69
2023/03/27 08:46:04;;;;;;;3.05;1.45;;;9.00;99.90;;;;;;5052072;28;20021;-70
2023/03/27 08:48:41;;;;;;;2.20;1.23;;;9.00;99.90;;;;;;5052330;28;20031;-69
2023/03/27 08:51:23;;;;;;;2.08;1.05;;;9.10;99.90;;;;;;5052047;28;20082;-69
2023/03/27 08:54:36;;;;;;;3.30;1.40;;;9.10;99.60;;;;;;5051730;28;20114;-69
2023/03/27 08:57:16;;;;;;;2.00;1.50;;;9.20;99.70;;;;;;5028729;28;20053;-71
2023/03/27 08:59:42;;;;;;;4.05;1.40;;;9.20;99.50;;;;;;5052270;28;20025;-68
2023/03/27 09:02:19;;;;;;;2.65;1.27;;;9.20;99.20;;;;;;5052177;28;20036;-69
2023/03/27 09:05:03;;;;;;;2.35;1.20;;;9.30;99.70;;;;;;5052209;28;20024;-69
2023/03/27 09:07:48;;;;;;;1.20;1.10;;;9.20;99.90;;;;;;5052278;28;20466;-70
2023/03/27 09:10:24;;;;;;;1.23;0.93;;;9.20;99.90;;;;;;5051817;28;20021;-70
2023/03/27 09:13:14;;;;;;;2.13;1.15;;;9.20;99.90;;;;;;5051956;28;20465;-69
2023/03/27 09:15:49;;;;;;;2.23;0.80;;;9.20;99.90;;;;;;5052238;28;20055;-70
2023/03/27 09:18:38;;;;;;;1.90;0.90;;;9.10;99.90;;;;;;5051904;28;20048;-69
2023/03/27 09:21:16;;;;;;;1.10;0.77;;;8.90;99.30;;;;;;5051830;28;20051;-70
2023/03/27 09:23:45;;;;;;;3.05;0.80;;;8.70;99.30;;;;;;5052251;28;20024;-69
2023/03/27 09:26:19;;;;;;;2.20;1.05;;;8.40;97.70;;;;;;5051577;28;20079;-70
2023/03/27 09:28:50;;;;;;;2.60;0.73;;;8.00;97.80;;;;;;5052207;28;20083;-69
2023/03/27 09:31:26;;;;;;;0.98;0.68;;;7.80;98.70;;;;;;5050460;28;20515;-70
2023/03/27 09:33:53;;;;;;;0.80;0.70;;;7.70;98.80;;;;;;5051890;28;20445;-70
2023/03/27 09:36:20;;;;;;;2.05;1.05;;;7.50;99.60;;;;;;5052708;28;20021;-70
2023/03/27 09:38:50;;;;;;;1.73;0.73;;;7.30;99.90;;;;;;5055654;28;20021;-69
2023/03/27 09:41:30;;;;;;;2.33;1.20;;;7.30;99.70;;;;;;5054905;28;20367;-69
2023/03/27 09:44:11;;;;;;;2.42;0.90;;;7.30;99.90;;;;;;5055338;28;20175;-69
2023/03/27 09:46:42;;;;;;;2.08;0.85;;;7.30;99.70;;;;;;5055347;28;20452;-70
2023/03/27 09:49:18;;;;;;;1.67;1.08;;;7.30;99.10;;;;;;5054880;28;20394;-70
2023/03/27 09:51:55;;;;;;;1.13;0.80;;;7.20;99.20;;;;;;5055353;28;20040;-70
2023/03/27 09:54:27;;;;;;;1.70;0.70;;;7.20;99.60;;;;;;5055005;28;20033;-70
2023/03/27 09:56:57;;;;;;;1.15;0.77;;;7.20;98.50;;;;;;5055368;28;20112;-70
2023/03/27 09:59:31;;;;;;;0.77;0.70;;;7.10;97.60;;;;;;5054770;28;20300;-69
2023/03/27 10:01:59;;;;;;;1.80;0.90;;;7.00;96.40;;;;;;5055303;28;20389;-69
2023/03/27 10:04:26;;;;;;;3.55;0.80;;;6.80;96.50;;;;;;5054776;28;20032;-69
2023/03/27 10:07:05;;;;;;;1.23;0.60;;;6.60;96.90;;;;;;5054979;28;20052;-70
2023/03/27 10:09:34;;;;;;;1.80;1.30;;;6.60;97.20;;;;;;5055309;28;20025;-70
2023/03/27 10:12:06;;;;;;;1.00;0.90;;;6.50;97.30;;;;;;5054880;28;20036;-70
2023/03/27 10:14:40;;;;;;;1.05;0.85;;;6.40;97.40;;;;;;5054990;28;20067;-70
2023/03/27 10:17:20;;;;;;;0.88;0.80;;;6.20;97.20;;;;;;5054602;28;20540;-71
2023/03/27 10:19:46;;;;;;;1.33;1.13;;;6.10;97.60;;;;;;5054893;28;20017;-71
2023/03/27 10:22:30;;;;;;;1.17;0.90;;;5.90;99.00;;;;;;5054449;28;20075;-69
2023/03/27 10:25:06;;;;;;;2.40;1.25;;;6.00;98.80;;;;;;5054815;28;20025;-71
2023/03/27 10:27:33;;;;;;;1.77;1.20;;;5.90;99.90;;;;;;5054680;28;20478;-71
2023/03/27 10:29:59;;;;;;;3.20;0.98;;;5.80;99.40;;;;;;5054668;28;20082;-71
2023/03/27 10:32:45;;;;;;;1.88;1.20;;;5.80;99.50;;;;;;5053860;28;20033;-70
2023/03/27 10:35:27;;;;;;;2.00;1.08;;;5.80;98.90;;;;;;5054187;28;20029;-69
2023/03/27 10:37:54;;;;;;;1.30;1.13;;;5.50;96.40;;;;;;5054654;28;20100;-69
2023/03/27 10:40:24;;;;;;;2.60;1.10;;;5.50;96.90;;;;;;5054022;28;20021;-70
2023/03/27 10:42:53;;;;;;;1.83;1.20;;;5.50;97.10;;;;;;5054244;28;20592;-70
2023/03/27 10:45:20;;;;;;;1.98;1.10;;;5.50;96.40;;;;;;5053694;28;20179;-70
2023/03/27 10:47:51;;;;;;;4.00;1.30;;;5.40;95.40;;;;;;5053264;28;20056;-69
2023/03/27 10:50:26;;;;;;;2.67;1.10;;;5.40;95.00;;;;;;5053814;28;20025;-70
2023/03/27 10:53:22;;;;;;;2.03;1.30;;;5.40;94.10;;;;;;5054081;28;20132;-70
2023/03/27 10:55:50;;;;;;;2.75;1.42;;;5.40;93.50;;;;;;5054387;28;20048;-70
2023/03/27 10:58:30;;;;;;;1.38;1.20;;;5.30;94.20;;;;;;5053698;28;20487;-69
2023/03/27 11:01:16;;;;;;;1.60;1.42;;;5.40;93.80;;;;;;5054345;28;20024;-69
2023/03/27 11:03:49;;;;;;;2.47;1.55;;;5.30;92.70;;;;;;5054175;28;20037;-69
2023/03/27 11:06:18;;;;;;;2.17;1.65;;;5.30;93.60;;;;;;5053524;28;20453;-70
2023/03/27 11:09:09;;;;;;;3.15;1.73;;;5.30;93.90;;;;;;5053999;28;20052;-69
2023/03/27 11:11:43;;;;;;;3.88;2.45;;;5.20;95.60;;;;;;5054352;28;20029;-69
2023/03/27 11:14:27;;;;;;;3.05;2.55;;;5.00;96.60;;;;;;5053636;28;20036;-76
2023/03/27 11:16:59;;;;;;;7.05;2.53;;;4.90;98.00;;;;;;5053677;28;20055;-70
2023/03/27 11:19:43;;;;;;;2.50;2.30;;;4.80;97.60;;;;;;5053139;28;20084;-69
2023/03/27 11:22:22;;;;;;;2.35;2.15;;;4.70;97.90;;;;;;5053483;28;20025;-77
2023/03/27 11:25:12;;;;;;;2.92;2.53;;;4.60;97.50;;;;;;5053701;28;20029;-70
2023/03/27 11:27:57;;;;;;;4.10;2.70;;;4.60;97.40;;;;;;5053635;28;20036;-70
2023/03/27 11:31:04;;;;;;;3.28;2.60;;;4.60;98.10;;;;;;5053287;28;20056;-70
2023/03/27 11:33:41;;;;;;;3.65;2.00;;;4.60;96.10;;;;;;5010914;28;20034;-70
2023/03/27 11:36:33;;;;;;;3.17;2.20;;;4.50;96.00;;;;;;5011559;28;20037;-70
2023/03/27 11:39:28;;;;;;;3.28;2.10;;;4.50;95.80;;;;;;5011721;28;20486;-70
2023/03/27 11:41:57;;;;;;;2.80;2.20;;;4.50;95.40;;;;;;5011634;28;20037;-69
2023/03/27 11:44:24;;;;;;;5.38;2.35;;;4.50;94.40;;;;;;5010563;28;20125;-69
2023/03/27 11:47:00;;;;;;;4.22;2.28;;;4.50;94.30;;;;;;4995116;28;20093;-69
2023/03/27 11:49:39;;;;;;;3.72;2.42;;;4.50;93.50;;;;;;5010824;28;20458;-69
2023/03/27 11:52:43;;;;;;;3.40;2.60;;;4.60;94.70;;;;;;5011156;28;20037;-71
2023/03/27 11:55:23;;;;;;;4.18;2.25;;;4.70;95.00;;;;;;5009719;28;20045;-70
2023/03/27 11:57:51;;;;;;;4.47;2.50;;;4.70;94.50;;;;;;5011125;28;20249;-70
2023/03/27 12:00:35;;;;;;;7.78;2.72;;;4.80;94.40;;;;;;5010227;28;20037;-70
2023/03/27 12:03:16;;;;;;;9.35;3.15;;;4.90;93.70;;;;;;5011459;28;20034;-70
2023/03/27 12:06:00;;;;;;;4.95;2.80;;;4.90;92.40;;;;;;5053000;28;20028;-71
2023/03/27 12:08:39;;;;;;;6.25;2.60;;;5.00;92.10;;;;;;5052560;28;20457;-70
2023/03/27 12:11:08;;;;;;;4.85;2.80;;;5.10;91.70;;;;;;5052771;28;20036;-70
2023/03/27 12:13:43;;;;;;;3.40;2.05;;;5.20;90.80;;;;;;5052061;28;20685;-70
2023/03/27 12:16:44;;;;;;;4.88;2.17;;;5.30;86.90;;;;;;5051665;28;20116;-71
2023/03/27 12:19:45;;;;;;;3.10;2.28;;;5.40;86.80;;;;;;5052147;28;20071;-70
2023/03/27 12:22:11;;;;;;;5.10;2.25;;;5.40;84.80;;;;;;5050157;28;20057;-70
2023/03/27 12:25:01;;;;;;;7.70;2.40;;;5.50;84.50;;;;;;5052093;28;20028;-69
2023/03/27 12:27:54;;;;;;;3.65;2.38;;;5.50;85.80;;;;;;5052230;28;20025;-69
2023/03/27 12:30:38;;;;;;;6.68;2.17;;;5.60;84.50;;;;;;5051946;28;20052;-71
2023/03/27 12:33:25;;;;;;;4.80;1.92;;;5.80;84.10;;;;;;5052536;28;20033;-71
2023/03/27 12:35:56;;;;;;;3.78;1.52;;;5.90;83.00;;;;;;5052665;28;20040;-69
2023/03/27 12:38:40;;;;;;;2.45;1.60;;;6.00;78.90;;;;;;5051921;28;20120;-71
2023/03/27 12:41:27;;;;;;;2.78;1.83;;;6.20;76.60;;;;;;5051206;28;20033;-71
2023/03/27 12:43:59;;;;;;;3.40;1.70;;;6.30;73.80;;;;;;5052181;28;20084;-70
2023/03/27 12:46:27;;;;;;;2.45;1.30;;;6.50;75.10;;;;;;5051922;28;20025;-71
2023/03/27 12:48:53;;;;;;;3.85;1.75;;;6.60;74.00;;;;;;5052682;28;20025;-71
2023/03/27 12:51:36;;;;;;;3.22;1.80;;;6.70;70.70;;;;;;5051725;28;20033;-71
2023/03/27 12:54:12;;;;;;;3.25;1.80;;;6.80;69.70;;;;;;5052205;28;20037;-70
2023/03/27 12:56:38;;;;;;;5.13;1.60;;;6.90;68.90;;;;;;5051596;28;20411;-70
2023/03/27 12:59:22;;;;;;;3.17;1.65;;;6.90;68.40;;;;;;5052061;28;20028;-71
2023/03/27 13:02:03;;;;;;;3.75;1.63;;;7.00;67.50;;;;;;5052343;28;20339;-70
2023/03/27 13:04:44;;;;;;;3.05;1.60;;;7.10;65.30;;;;;;5051856;28;20079;-71
2023/03/27 13:07:09;;;;;;;5.47;2.03;;;7.20;62.00;;;;;;5052202;28;20043;-71
2023/03/27 13:10:02;;;;;;;7.95;2.05;;;7.30;62.80;;;;;;5051833;28;20025;-69
2023/03/27 13:12:41;;;;;;;3.85;1.52;;;7.30;61.00;;;;;;5054068;28;20466;-70
2023/03/27 13:15:30;;;;;;;5.32;1.40;;;7.40;59.40;;;;;;5056334;28;20522;-70
2023/03/27 13:18:05;;;;;;;3.47;1.40;;;7.50;59.70;;;;;;5056079;28;20028;-70
2023/03/27 13:20:55;;;;;;;3.28;1.67;;;7.60;58.50;;;;;;5055341;28;20029;-70